createdAt,value
2022-11-07T00:00:50.659Z,12.32
2022-11-07T00:01:52.758Z,12.49
2022-11-07T00:02:54.865Z,12.65
2022-11-07T00:03:56.697Z,12.76
2022-11-07T00:04:58.387Z,12.59
2022-11-07T00:06:00.117Z,12.14
2022-11-07T00:07:02.660Z,11.62
2022-11-07T00:08:04.674Z,11.11
2022-11-07T00:09:06.482Z,10.65
2022-11-07T00:10:08.534Z,10.25
2022-11-07T00:11:10.259Z,9.99
2022-11-07T00:12:12.021Z,10.11
2022-11-07T00:13:14.993Z,10.52
2022-11-07T00:14:18.324Z,11.00
2022-11-07T00:15:20.118Z,11.43
2022-11-07T00:16:21.889Z,11.80
2022-11-07T00:17:23.636Z,12.12
2022-11-07T00:18:25.674Z,12.39
2022-11-07T00:19:27.431Z,12.63
2022-11-07T00:20:29.209Z,12.84
2022-11-07T00:21:30.940Z,12.86
2022-11-07T00:22:32.753Z,12.54
2022-11-07T00:23:35.340Z,12.05
2022-11-07T00:24:37.069Z,11.51
2022-11-07T00:25:38.853Z,11.02
2022-11-07T00:26:40.796Z,10.59
2022-11-07T00:27:42.691Z,10.24
2022-11-07T00:28:44.778Z,10.18
2022-11-07T00:29:46.531Z,10.50
2022-11-07T00:30:48.338Z,10.94
2022-11-07T00:31:50.829Z,11.37
2022-11-07T00:32:55.218Z,11.75
2022-11-07T00:34:00.828Z,12.09
2022-11-07T00:35:02.556Z,12.35
2022-11-07T00:36:05.137Z,12.57
2022-11-07T00:37:06.897Z,12.76
2022-11-07T00:38:08.750Z,12.90
2022-11-07T00:39:11.832Z,12.99
2022-11-07T00:40:13.605Z,13.10
2022-11-07T00:41:16.360Z,13.08
2022-11-07T00:42:18.067Z,12.74
2022-11-07T00:43:19.768Z,12.22
2022-11-07T00:44:22.818Z,11.67
2022-11-07T00:45:25.016Z,11.14
2022-11-07T00:46:26.887Z,10.69
2022-11-07T00:47:28.846Z,10.43
2022-11-07T00:48:32.080Z,10.57
2022-11-07T00:49:33.992Z,10.93
2022-11-07T00:50:35.731Z,11.33
2022-11-07T00:51:37.624Z,11.70
2022-11-07T00:52:39.403Z,12.02
2022-11-07T00:53:42.239Z,12.28
2022-11-07T00:54:44.118Z,12.49
2022-11-07T00:55:46.222Z,12.67
2022-11-07T00:56:47.965Z,12.84
2022-11-07T00:57:49.686Z,13.00
2022-11-07T00:58:56.139Z,13.11
2022-11-07T00:59:58.037Z,13.21
2022-11-07T01:01:06.205Z,13.29
2022-11-07T01:02:08.083Z,13.38
2022-11-07T01:03:28.227Z,13.45
2022-11-07T01:04:48.614Z,13.48
2022-11-07T01:05:58.407Z,13.12
2022-11-07T01:07:02.397Z,12.53
2022-11-07T01:08:04.731Z,11.96
2022-11-07T01:09:09.669Z,11.46
2022-11-07T01:10:11.573Z,11.02
2022-11-07T01:11:14.265Z,10.88
2022-11-07T01:12:16.226Z,11.11
2022-11-07T01:13:18.415Z,11.52
2022-11-07T01:14:22.205Z,11.91
2022-11-07T01:15:24.192Z,12.27
2022-11-07T01:16:27.443Z,12.58
2022-11-07T01:17:29.206Z,12.82
2022-11-07T01:18:30.978Z,13.03
2022-11-07T01:19:32.731Z,13.21
2022-11-07T01:20:34.638Z,13.39
2022-11-07T01:21:41.660Z,13.54
2022-11-07T01:22:43.391Z,13.68
2022-11-07T01:23:45.383Z,13.77
2022-11-07T01:24:47.573Z,13.63
2022-11-07T01:25:49.546Z,13.19
2022-11-07T01:26:51.887Z,12.67
2022-11-07T01:27:53.692Z,12.14
2022-11-07T01:28:55.512Z,11.67
2022-11-07T01:29:57.290Z,11.25
2022-11-07T01:31:02.304Z,11.10
2022-11-07T01:32:04.315Z,11.39
2022-11-07T01:33:06.090Z,11.82
2022-11-07T01:34:08.079Z,12.25
2022-11-07T01:35:09.912Z,12.62
2022-11-07T01:36:15.245Z,12.93
2022-11-07T01:37:17.084Z,13.17
2022-11-07T01:38:18.844Z,13.36
2022-11-07T01:39:20.627Z,13.51
2022-11-07T01:40:22.427Z,13.62
2022-11-07T01:41:27.788Z,13.72
2022-11-07T01:42:29.538Z,13.79
2022-11-07T01:43:46.328Z,13.80
2022-11-07T01:44:55.128Z,13.39
2022-11-07T01:45:56.841Z,12.80
2022-11-07T01:47:01.147Z,12.26
2022-11-07T01:48:03.773Z,11.74
2022-11-07T01:49:26.168Z,11.30
2022-11-07T01:50:28.309Z,11.14
2022-11-07T01:51:35.324Z,11.46
2022-11-07T01:52:42.003Z,11.95
2022-11-07T01:53:44.216Z,12.42
2022-11-07T01:54:52.133Z,12.77
2022-11-07T01:55:54.293Z,13.06
2022-11-07T01:57:00.638Z,13.28
2022-11-07T01:58:07.978Z,13.45
2022-11-07T01:59:13.997Z,13.62
2022-11-07T02:00:19.855Z,13.75
2022-11-07T02:01:22.661Z,13.89
2022-11-07T02:02:28.233Z,13.99
2022-11-07T02:03:30.238Z,13.90
2022-11-07T02:04:32.073Z,13.49
2022-11-07T02:06:13.393Z,12.93
2022-11-07T02:07:19.925Z,12.03
2022-11-07T02:08:23.996Z,11.53
2022-11-07T02:09:25.816Z,11.28
2022-11-07T02:10:28.716Z,11.44
2022-11-07T02:11:30.760Z,11.83
2022-11-07T02:12:32.788Z,12.27
2022-11-07T02:13:34.678Z,12.67
2022-11-07T02:14:36.523Z,12.96
2022-11-07T02:15:38.368Z,13.21
2022-11-07T02:16:40.150Z,13.39
2022-11-07T02:17:42.177Z,13.54
2022-11-07T02:18:46.008Z,13.70
2022-11-07T02:19:51.426Z,13.84
2022-11-07T02:20:58.251Z,13.97
2022-11-07T02:22:14.192Z,14.10
2022-11-07T02:23:31.344Z,14.18
2022-11-07T02:24:38.200Z,13.99
2022-11-07T02:25:40.224Z,13.49
2022-11-07T02:26:43.653Z,12.93
2022-11-07T02:27:51.467Z,12.39
2022-11-07T02:28:57.399Z,11.90
2022-11-07T02:30:05.309Z,11.61
2022-11-07T02:31:07.074Z,11.79
2022-11-07T02:32:11.996Z,12.19
2022-11-07T02:33:19.776Z,12.62
2022-11-07T02:34:21.545Z,13.01
2022-11-07T02:35:37.382Z,13.33
2022-11-07T02:36:39.362Z,13.60
2022-11-07T02:37:41.123Z,13.77
2022-11-07T02:38:46.549Z,13.89
2022-11-07T02:39:48.506Z,14.04
2022-11-07T02:41:00.136Z,14.14
2022-11-07T02:42:03.799Z,14.22
2022-11-07T02:43:09.605Z,14.29
2022-11-07T02:44:13.168Z,14.30
2022-11-07T02:45:24.316Z,13.98
2022-11-07T02:46:29.032Z,13.38
2022-11-07T02:47:30.752Z,12.82
2022-11-07T02:48:41.161Z,12.33
2022-11-07T02:49:42.901Z,11.85
2022-11-07T02:50:45.992Z,11.69
2022-11-07T02:51:47.745Z,11.94
2022-11-07T02:52:49.465Z,12.36
2022-11-07T02:53:52.149Z,12.78
2022-11-07T02:54:53.906Z,13.16
2022-11-07T02:55:55.661Z,13.47
2022-11-07T02:56:57.425Z,13.74
2022-11-07T02:57:59.315Z,13.96
2022-11-07T02:59:01.481Z,14.13
2022-11-07T03:00:05.139Z,14.23
2022-11-07T03:01:12.321Z,14.33
2022-11-07T03:02:14.445Z,14.44
2022-11-07T03:03:16.816Z,14.56
2022-11-07T03:04:19.405Z,14.60
2022-11-07T03:05:21.759Z,14.33
2022-11-07T03:06:25.654Z,13.83
2022-11-07T03:07:27.640Z,13.27
2022-11-07T03:08:29.451Z,12.78
2022-11-07T03:09:31.186Z,12.33
2022-11-07T03:10:33.007Z,12.00
2022-11-07T03:11:34.746Z,12.09
2022-11-07T03:12:36.815Z,12.48
2022-11-07T03:13:39.119Z,12.91
2022-11-07T03:14:40.918Z,13.29
2022-11-07T03:15:42.831Z,13.64
2022-11-07T03:16:44.572Z,13.92
2022-11-07T03:17:46.396Z,14.14
2022-11-07T03:18:48.670Z,14.32
2022-11-07T03:19:50.417Z,14.49
2022-11-07T03:20:52.185Z,14.63
2022-11-07T03:21:54.068Z,14.76
2022-11-07T03:22:55.983Z,14.87
2022-11-07T03:23:58.690Z,14.78
2022-11-07T03:25:00.461Z,14.36
2022-11-07T03:26:05.710Z,13.81
2022-11-07T03:27:24.921Z,13.10
2022-11-07T03:28:26.724Z,12.63
2022-11-07T03:29:28.634Z,12.27
2022-11-07T03:30:30.895Z,12.28
2022-11-07T03:31:32.613Z,12.59
2022-11-07T03:32:34.946Z,13.00
2022-11-07T03:33:37.402Z,13.41
2022-11-07T03:34:39.158Z,13.77
2022-11-07T03:35:41.078Z,14.07
2022-11-07T03:36:42.846Z,14.31
2022-11-07T03:37:46.728Z,14.49
2022-11-07T03:38:48.474Z,14.66
2022-11-07T03:39:50.222Z,14.80
2022-11-07T03:40:52.046Z,14.91
2022-11-07T03:41:53.788Z,14.99
2022-11-07T03:42:55.826Z,14.87
2022-11-07T03:43:57.527Z,14.46
2022-11-07T03:44:59.234Z,13.92
2022-11-07T03:46:01.088Z,13.39
2022-11-07T03:47:02.833Z,12.93
2022-11-07T03:48:04.757Z,12.53
2022-11-07T03:49:06.557Z,12.31
2022-11-07T03:50:11.546Z,12.50
2022-11-07T03:51:13.674Z,12.92
2022-11-07T03:52:15.425Z,13.37
2022-11-07T03:53:20.836Z,13.74
2022-11-07T03:54:27.220Z,14.12
2022-11-07T03:55:28.992Z,14.39
2022-11-07T03:56:31.064Z,14.61
2022-11-07T03:57:33.023Z,14.78
2022-11-07T03:58:35.426Z,14.91
2022-11-07T03:59:37.169Z,15.04
2022-11-07T04:00:38.897Z,15.13
2022-11-07T04:01:40.786Z,15.12
2022-11-07T04:02:43.521Z,14.81
2022-11-07T04:03:45.345Z,14.32
2022-11-07T04:04:47.044Z,13.79
2022-11-07T04:05:48.774Z,13.30
2022-11-07T04:06:50.754Z,12.86
2022-11-07T04:07:52.562Z,12.59
2022-11-07T04:08:54.368Z,12.73
2022-11-07T04:09:56.158Z,13.10
2022-11-07T04:10:57.909Z,13.51
2022-11-07T04:12:18.286Z,13.88
2022-11-07T04:13:38.934Z,14.28
2022-11-07T04:14:59.323Z,14.60
2022-11-07T04:16:14.994Z,14.84
2022-11-07T04:17:19.567Z,15.03
2022-11-07T04:18:21.331Z,15.17
2022-11-07T04:19:26.450Z,15.16
2022-11-07T04:20:29.503Z,14.79
2022-11-07T04:21:31.264Z,14.27
2022-11-07T04:22:32.985Z,13.72
2022-11-07T04:23:34.808Z,13.22
2022-11-07T04:24:38.294Z,12.77
2022-11-07T04:26:01.614Z,12.45
2022-11-07T04:27:21.866Z,12.67
2022-11-07T04:28:23.672Z,13.24
2022-11-07T04:29:25.373Z,13.65
2022-11-07T04:30:28.234Z,14.02
2022-11-07T04:31:30.065Z,14.32
2022-11-07T04:32:31.811Z,14.54
2022-11-07T04:33:33.525Z,14.72
2022-11-07T04:34:35.262Z,14.88
2022-11-07T04:35:36.993Z,15.01
2022-11-07T04:36:38.727Z,15.13
2022-11-07T04:37:42.156Z,15.22
2022-11-07T04:38:43.871Z,15.24
2022-11-07T04:39:45.656Z,15.00
2022-11-07T04:40:56.199Z,14.53
2022-11-07T04:41:57.875Z,13.92
2022-11-07T04:42:59.618Z,13.41
2022-11-07T04:44:01.293Z,12.96
2022-11-07T04:45:03.675Z,12.60
2022-11-07T04:46:05.545Z,12.56
2022-11-07T04:47:07.272Z,12.87
2022-11-07T04:48:10.855Z,13.30
2022-11-07T04:49:15.226Z,13.72
2022-11-07T04:50:19.655Z,14.07
2022-11-07T04:51:22.855Z,14.38
2022-11-07T04:52:25.119Z,14.62
2022-11-07T04:53:27.020Z,14.79
2022-11-07T04:54:28.765Z,14.92
2022-11-07T04:55:30.904Z,15.04
2022-11-07T04:56:34.538Z,15.17
2022-11-07T04:57:36.506Z,15.17
2022-11-07T04:58:38.579Z,14.88
2022-11-07T04:59:40.344Z,14.39
2022-11-07T05:00:42.169Z,13.85
2022-11-07T05:01:43.923Z,13.36
2022-11-07T05:02:46.835Z,12.91
2022-11-07T05:03:48.672Z,12.54
2022-11-07T05:04:51.169Z,12.51
2022-11-07T05:05:53.025Z,12.86
2022-11-07T05:06:54.760Z,13.31
2022-11-07T05:07:56.552Z,13.74
2022-11-07T05:08:58.277Z,14.08
2022-11-07T05:10:00.104Z,14.36
2022-11-07T05:11:01.854Z,14.60
2022-11-07T05:12:03.849Z,14.80
2022-11-07T05:13:05.591Z,14.99
2022-11-07T05:14:08.511Z,15.15
2022-11-07T05:15:10.493Z,15.27
2022-11-07T05:16:19.058Z,15.27
2022-11-07T05:17:25.521Z,14.95
2022-11-07T05:18:29.500Z,14.40
2022-11-07T05:19:31.201Z,13.86
2022-11-07T05:20:38.281Z,13.34
2022-11-07T05:21:40.006Z,12.84
2022-11-07T05:23:00.329Z,12.46
2022-11-07T05:24:02.035Z,12.50
2022-11-07T05:25:03.856Z,12.88
2022-11-07T05:26:05.852Z,13.31
2022-11-07T05:27:15.216Z,13.72
2022-11-07T05:28:31.122Z,14.08
2022-11-07T05:29:37.284Z,14.39
2022-11-07T05:30:43.682Z,14.61
2022-11-07T05:31:45.666Z,14.78
2022-11-07T05:32:47.471Z,14.91
2022-11-07T05:33:49.228Z,15.03
2022-11-07T05:34:50.998Z,15.13
2022-11-07T05:35:53.127Z,15.21
2022-11-07T05:36:54.871Z,15.14
2022-11-07T05:37:56.581Z,14.75
2022-11-07T05:38:58.385Z,14.21
2022-11-07T05:40:00.134Z,13.66
2022-11-07T05:41:05.200Z,13.17
2022-11-07T05:42:07.354Z,12.72
2022-11-07T05:43:13.136Z,12.48
2022-11-07T05:44:15.168Z,12.69
2022-11-07T05:45:17.444Z,13.09
2022-11-07T05:46:19.273Z,13.50
2022-11-07T05:47:20.984Z,13.86
2022-11-07T05:48:22.711Z,14.17
2022-11-07T05:49:24.911Z,14.42
2022-11-07T05:50:28.292Z,14.62
2022-11-07T05:51:30.025Z,14.79
2022-11-07T05:52:49.354Z,14.96
2022-11-07T05:53:51.415Z,15.08
2022-11-07T05:54:53.165Z,15.17
2022-11-07T05:55:55.398Z,15.00
2022-11-07T05:56:58.132Z,14.55
2022-11-07T05:58:04.278Z,14.00
2022-11-07T05:59:09.232Z,13.44
2022-11-07T06:00:11.583Z,12.97
2022-11-07T06:01:16.064Z,12.57
2022-11-07T06:02:17.892Z,12.52
2022-11-07T06:03:22.745Z,12.83
2022-11-07T06:04:24.668Z,13.30
2022-11-07T06:05:26.789Z,13.71
2022-11-07T06:06:28.605Z,14.07
2022-11-07T06:07:34.896Z,14.38
2022-11-07T06:08:36.620Z,14.64
2022-11-07T06:09:38.368Z,14.85
2022-11-07T06:10:42.411Z,15.00
2022-11-07T06:11:44.216Z,15.14
2022-11-07T06:12:46.116Z,15.20
2022-11-07T06:13:47.810Z,14.95
2022-11-07T06:14:49.515Z,14.48
2022-11-07T06:15:51.249Z,13.96
2022-11-07T06:16:53.153Z,13.47
2022-11-07T06:17:55.518Z,13.03
2022-11-07T06:18:57.232Z,12.66
2022-11-07T06:19:59.027Z,12.61
2022-11-07T06:21:04.373Z,12.92
2022-11-07T06:22:06.170Z,13.38
2022-11-07T06:23:08.004Z,13.80
2022-11-07T06:24:15.103Z,14.18
2022-11-07T06:25:17.350Z,14.50
2022-11-07T06:26:19.087Z,14.74
2022-11-07T06:27:20.885Z,14.92
2022-11-07T06:28:22.775Z,15.10
2022-11-07T06:29:24.488Z,15.23
2022-11-07T06:30:26.740Z,15.13
2022-11-07T06:31:28.457Z,14.72
2022-11-07T06:32:30.748Z,14.20
2022-11-07T06:33:32.926Z,13.68
2022-11-07T06:34:34.858Z,13.22
2022-11-07T06:35:36.937Z,12.83
2022-11-07T06:36:38.730Z,12.67
2022-11-07T06:37:40.548Z,12.93
2022-11-07T06:38:42.318Z,13.35
2022-11-07T06:39:44.201Z,13.78
2022-11-07T06:40:46.356Z,14.17
2022-11-07T06:41:49.406Z,14.49
2022-11-07T06:42:51.424Z,14.75
2022-11-07T06:43:53.176Z,14.97
2022-11-07T06:44:54.947Z,15.15
2022-11-07T06:45:56.717Z,15.27
2022-11-07T06:46:58.552Z,15.19
2022-11-07T06:48:00.666Z,14.81
2022-11-07T06:49:02.789Z,14.29
2022-11-07T06:50:05.177Z,13.76
2022-11-07T06:51:09.884Z,13.28
2022-11-07T06:52:11.661Z,12.85
2022-11-07T06:53:14.659Z,12.51
2022-11-07T06:54:16.793Z,12.52
2022-11-07T06:55:18.521Z,12.88
2022-11-07T06:56:20.322Z,13.35
2022-11-07T06:57:22.093Z,13.79
2022-11-07T06:58:23.817Z,14.17
2022-11-07T06:59:25.543Z,14.46
2022-11-07T07:00:29.077Z,14.69
2022-11-07T07:01:31.399Z,14.89
2022-11-07T07:02:56.917Z,15.04
2022-11-07T07:03:55.428Z,15.18
2022-11-07T07:04:57.171Z,15.23
2022-11-07T07:06:03.617Z,14.98
2022-11-07T07:07:05.461Z,14.47
2022-11-07T07:08:08.020Z,13.93
2022-11-07T07:09:09.881Z,13.44
2022-11-07T07:10:11.594Z,13.01
2022-11-07T07:11:16.496Z,12.67
2022-11-07T07:12:18.285Z,12.67
2022-11-07T07:13:20.087Z,13.03
2022-11-07T07:14:22.028Z,13.47
2022-11-07T07:15:24.329Z,13.89
2022-11-07T07:16:26.089Z,14.27
2022-11-07T07:17:27.865Z,14.57
2022-11-07T07:18:30.835Z,14.83
2022-11-07T07:19:32.564Z,15.06
2022-11-07T07:20:34.565Z,15.25
2022-11-07T07:21:36.424Z,15.41
2022-11-07T07:22:38.150Z,15.46
2022-11-07T07:23:40.647Z,15.21
2022-11-07T07:24:42.447Z,14.75
2022-11-07T07:25:44.635Z,14.25
2022-11-07T07:26:46.364Z,13.77
2022-11-07T07:27:48.274Z,13.36
2022-11-07T07:28:50.034Z,12.99
2022-11-07T07:29:53.480Z,12.75
2022-11-07T07:31:07.340Z,12.91
2022-11-07T07:32:09.654Z,13.38
2022-11-07T07:33:11.399Z,13.77
2022-11-07T07:34:14.596Z,14.15
2022-11-07T07:35:16.509Z,14.49
2022-11-07T07:36:21.012Z,14.75
2022-11-07T07:37:23.031Z,14.99
2022-11-07T07:38:24.776Z,15.14
2022-11-07T07:39:27.933Z,15.27
2022-11-07T07:40:29.753Z,15.36
2022-11-07T07:41:35.026Z,15.42
2022-11-07T07:42:43.932Z,15.11
2022-11-07T07:43:45.697Z,14.55
2022-11-07T07:44:47.461Z,14.02
2022-11-07T07:45:49.181Z,13.53
2022-11-07T07:46:51.015Z,13.08
2022-11-07T07:47:53.239Z,12.67
2022-11-07T07:48:55.032Z,12.43
2022-11-07T07:49:56.756Z,12.59
2022-11-07T07:50:59.612Z,13.00
2022-11-07T07:52:01.468Z,13.44
2022-11-07T07:53:08.695Z,13.78
2022-11-07T07:54:12.007Z,14.13
2022-11-07T07:55:14.177Z,14.42
2022-11-07T07:56:17.627Z,14.64
2022-11-07T07:57:19.369Z,14.84
2022-11-07T07:58:21.085Z,15.00
2022-11-07T07:59:22.823Z,15.12
2022-11-07T08:00:24.562Z,15.18
2022-11-07T08:01:26.380Z,15.30
2022-11-07T08:02:28.239Z,15.33
2022-11-07T08:03:50.778Z,15.05
2022-11-07T08:04:52.187Z,14.38
2022-11-07T08:05:55.992Z,13.85
2022-11-07T08:06:57.688Z,13.38
2022-11-07T08:07:59.592Z,12.98
2022-11-07T08:09:01.419Z,12.62
2022-11-07T08:10:27.011Z,12.49
2022-11-07T08:11:25.496Z,12.86
2022-11-07T08:12:27.229Z,13.31
2022-11-07T08:13:29.883Z,13.75
2022-11-07T08:14:32.962Z,14.14
2022-11-07T08:15:34.727Z,14.46
2022-11-07T08:16:36.465Z,14.72
2022-11-07T08:17:38.639Z,14.93
2022-11-07T08:18:40.964Z,15.12
2022-11-07T08:19:42.717Z,15.31
2022-11-07T08:20:44.427Z,15.43
2022-11-07T08:21:46.354Z,15.49
2022-11-07T08:22:48.072Z,15.24
2022-11-07T08:23:53.436Z,14.75
2022-11-07T08:24:55.170Z,14.18
2022-11-07T08:25:59.022Z,13.69
2022-11-07T08:27:00.763Z,13.25
2022-11-07T08:28:02.493Z,12.87
2022-11-07T08:29:05.683Z,12.54
2022-11-07T08:30:11.545Z,12.35
2022-11-07T08:31:15.655Z,12.57
2022-11-07T08:32:17.413Z,13.00
2022-11-07T08:33:19.547Z,13.43
2022-11-07T08:34:21.707Z,13.81
2022-11-07T08:35:23.785Z,14.15
2022-11-07T08:36:26.653Z,14.38
2022-11-07T08:37:28.386Z,14.58
2022-11-07T08:38:32.226Z,14.71
2022-11-07T08:39:34.012Z,14.84
2022-11-07T08:40:35.994Z,15.00
2022-11-07T08:41:37.758Z,14.97
2022-11-07T08:42:39.484Z,14.64
2022-11-07T08:43:41.217Z,14.19
2022-11-07T08:44:43.029Z,13.71
2022-11-07T08:45:46.341Z,13.26
2022-11-07T08:46:48.089Z,12.85
2022-11-07T08:47:49.792Z,12.52
2022-11-07T08:48:51.529Z,12.39
2022-11-07T08:49:53.323Z,12.64
2022-11-07T08:50:57.071Z,13.08
2022-11-07T08:52:00.564Z,13.51
2022-11-07T08:53:03.326Z,13.90
2022-11-07T08:54:05.355Z,14.27
2022-11-07T08:55:08.021Z,14.55
2022-11-07T08:56:10.828Z,14.77
2022-11-07T08:57:12.599Z,14.85
2022-11-07T08:58:15.253Z,14.64
2022-11-07T08:59:17.582Z,14.21
2022-11-07T09:00:19.727Z,13.74
2022-11-07T09:01:21.758Z,13.32
2022-11-07T09:03:49.252Z,12.50
2022-11-07T09:04:54.948Z,12.23
2022-11-07T09:05:57.600Z,12.32
2022-11-07T09:06:59.331Z,12.74
2022-11-07T09:08:01.103Z,13.22
2022-11-07T09:09:03.111Z,13.67
2022-11-07T09:10:05.395Z,14.05
2022-11-07T09:11:07.633Z,14.39
2022-11-07T09:12:09.359Z,14.59
2022-11-07T09:13:11.119Z,14.70
2022-11-07T09:14:12.815Z,14.53
2022-11-07T09:15:15.968Z,14.14
2022-11-07T09:16:17.861Z,13.66
2022-11-07T09:17:19.630Z,13.21
2022-11-07T09:18:21.591Z,12.82
2022-11-07T09:19:23.331Z,12.50
2022-11-07T09:20:25.109Z,12.24
2022-11-07T09:21:26.866Z,12.03
2022-11-07T09:22:28.949Z,12.16
2022-11-07T09:23:31.193Z,12.56
2022-11-07T09:24:32.950Z,13.07
2022-11-07T09:25:34.680Z,13.53
2022-11-07T09:26:36.416Z,13.95
2022-11-07T09:27:38.283Z,14.31
2022-11-07T09:28:40.820Z,14.56
2022-11-07T09:29:42.566Z,14.80
2022-11-07T09:30:44.361Z,14.92
2022-11-07T09:31:46.068Z,14.64
2022-11-07T09:32:47.874Z,14.20
2022-11-07T09:33:49.585Z,13.76
2022-11-07T09:34:58.125Z,13.34
2022-11-07T09:36:03.963Z,12.93
2022-11-07T09:37:06.104Z,12.59
2022-11-07T09:38:07.988Z,12.32
2022-11-07T09:39:09.811Z,12.13
2022-11-07T09:40:40.495Z,12.25
2022-11-07T09:41:54.848Z,12.88
2022-11-07T09:43:07.257Z,13.46
2022-11-07T09:44:17.366Z,13.97
2022-11-07T09:45:19.070Z,14.38
2022-11-07T09:46:40.238Z,14.59
2022-11-07T09:47:48.512Z,14.53
2022-11-07T09:49:08.951Z,14.12
2022-11-07T09:50:23.534Z,13.56
2022-11-07T09:51:42.629Z,13.10
2022-11-07T09:52:58.897Z,12.71
2022-11-07T09:54:07.743Z,12.41
2022-11-07T09:55:17.370Z,12.20
2022-11-07T09:56:21.851Z,12.28
2022-11-07T09:57:24.169Z,12.70
2022-11-07T09:58:38.019Z,13.22
2022-11-07T09:59:55.877Z,13.77
2022-11-07T10:01:02.967Z,14.26
2022-11-07T10:02:15.676Z,14.61
2022-11-07T10:03:18.208Z,14.74
2022-11-07T10:04:25.170Z,14.46
2022-11-07T10:05:40.441Z,14.03
2022-11-07T10:07:05.400Z,13.55
2022-11-07T10:08:31.726Z,13.08
2022-11-07T10:10:01.083Z,12.69
2022-11-07T10:11:23.677Z,12.35
2022-11-07T10:13:04.842Z,12.11
2022-11-07T10:14:16.946Z,12.05
2022-11-07T10:15:30.297Z,12.52
2022-11-07T10:17:01.940Z,13.18
2022-11-07T10:18:28.693Z,13.95
2022-11-07T10:19:40.421Z,14.52
2022-11-07T10:21:31.060Z,14.76
2022-11-07T10:22:23.389Z,14.36
2022-11-07T10:23:46.746Z,13.99
2022-11-07T10:25:18.058Z,13.53
2022-11-07T10:26:25.431Z,13.06
2022-11-07T10:27:27.874Z,12.78
2022-11-07T10:28:31.940Z,12.56
2022-11-07T10:29:45.021Z,12.36
2022-11-07T10:30:53.991Z,12.17
2022-11-07T10:32:18.111Z,12.01
2022-11-07T10:33:43.366Z,11.85
2022-11-07T10:35:02.591Z,11.73
2022-11-07T10:36:22.476Z,11.64
2022-11-07T10:37:24.417Z,11.86
2022-11-07T10:38:32.264Z,12.40
2022-11-07T10:39:34.003Z,13.11
2022-11-07T10:40:39.985Z,13.70
2022-11-07T10:41:59.000Z,14.24
2022-11-07T10:43:05.677Z,14.60
2022-11-07T10:44:22.773Z,14.48
2022-11-07T10:45:27.696Z,14.13
2022-11-07T10:46:38.161Z,13.81
2022-11-07T10:47:41.903Z,13.51
2022-11-07T10:49:00.094Z,13.28
2022-11-07T10:50:16.534Z,13.08
2022-11-07T10:51:18.634Z,12.94
2022-11-07T10:52:20.483Z,12.85
2022-11-07T10:53:25.126Z,12.78
2022-11-07T10:54:28.531Z,12.72
2022-11-07T10:55:44.276Z,12.67
2022-11-07T10:56:50.005Z,12.62
2022-11-07T10:58:04.505Z,12.56
2022-11-07T10:59:13.341Z,12.51
2022-11-07T11:00:24.887Z,12.46
2022-11-07T11:01:27.613Z,12.43
2022-11-07T11:02:41.971Z,12.44
2022-11-07T11:03:48.601Z,12.47
2022-11-07T11:04:57.512Z,12.51
2022-11-07T11:06:18.036Z,12.53
2022-11-07T11:07:25.634Z,12.57
2022-11-07T11:08:37.848Z,12.59
2022-11-07T11:09:51.121Z,12.58
2022-11-07T11:10:52.951Z,12.59
2022-11-07T11:11:55.379Z,12.57
2022-11-07T11:12:57.776Z,12.57
2022-11-07T11:14:11.004Z,12.57
2022-11-07T11:15:15.067Z,12.54
2022-11-07T11:16:26.604Z,12.54
2022-11-07T11:17:28.616Z,12.51
2022-11-07T11:18:30.431Z,12.47
2022-11-07T11:19:52.473Z,12.44
2022-11-07T11:21:01.751Z,12.38
2022-11-07T11:22:16.714Z,12.35
2022-11-07T11:23:23.658Z,12.31
2022-11-07T11:24:32.036Z,12.28
2022-11-07T11:25:44.403Z,12.25
2022-11-07T11:26:50.966Z,12.19
2022-11-07T11:28:06.902Z,12.13
2022-11-07T11:29:24.335Z,12.07
2022-11-07T11:30:26.447Z,12.05
2022-11-07T11:31:35.061Z,12.04
2022-11-07T11:32:48.547Z,12.04
2022-11-07T11:34:10.843Z,12.02
2022-11-07T11:35:18.431Z,12.00
2022-11-07T11:36:27.781Z,12.26
2022-11-07T11:37:37.189Z,12.89
2022-11-07T11:38:39.096Z,13.60
2022-11-07T11:39:46.629Z,14.15
2022-11-07T11:41:03.282Z,14.52
2022-11-07T11:42:27.179Z,14.40
2022-11-07T11:43:51.478Z,14.02
2022-11-07T11:44:59.011Z,13.61
2022-11-07T11:46:31.381Z,13.32
2022-11-07T11:47:41.379Z,12.97
2022-11-07T11:49:12.195Z,12.75
2022-11-07T11:50:21.967Z,12.53
2022-11-07T11:51:46.509Z,12.39
2022-11-07T11:52:48.664Z,12.23
2022-11-07T11:53:50.603Z,12.14
2022-11-07T11:54:56.208Z,12.05
2022-11-07T11:56:26.956Z,11.96
2022-11-07T11:57:50.152Z,11.92
2022-11-07T11:59:16.310Z,12.44
2022-11-07T12:00:21.179Z,13.23
2022-11-07T12:01:32.517Z,13.81
2022-11-07T12:03:08.220Z,14.39
2022-11-07T12:04:46.403Z,14.98
2022-11-07T12:06:09.170Z,14.81
2022-11-07T12:07:39.054Z,14.30
2022-11-07T12:08:59.332Z,13.79
2022-11-07T12:10:20.206Z,13.40
2022-11-07T12:11:38.000Z,13.07
2022-11-07T12:13:10.665Z,12.80
2022-11-07T12:14:39.928Z,12.52
2022-11-07T12:15:57.105Z,12.30
2022-11-07T12:17:15.616Z,12.14
2022-11-07T12:18:44.450Z,12.00
2022-11-07T12:20:03.390Z,11.95
2022-11-07T12:21:33.339Z,12.41
2022-11-07T12:23:03.051Z,13.19
2022-11-07T12:24:32.291Z,13.94
2022-11-07T12:26:12.662Z,14.50
2022-11-07T12:27:31.499Z,14.45
2022-11-07T12:28:44.467Z,13.98
2022-11-07T12:30:07.838Z,13.53
2022-11-07T12:31:30.851Z,13.07
2022-11-07T12:33:05.421Z,12.70
2022-11-07T12:34:56.893Z,12.37
2022-11-07T12:36:06.784Z,12.07
2022-11-07T12:37:24.882Z,11.91
2022-11-07T12:38:29.295Z,11.87
2022-11-07T12:39:55.817Z,12.24
2022-11-07T12:41:20.290Z,12.97
2022-11-07T12:42:46.701Z,13.66
2022-11-07T12:44:02.188Z,14.20
2022-11-07T12:45:26.752Z,14.18
2022-11-07T12:46:45.360Z,13.78
2022-11-07T12:47:56.947Z,13.33
2022-11-07T12:49:37.992Z,12.97
2022-11-07T12:50:57.373Z,12.51
2022-11-07T12:52:31.085Z,12.21
2022-11-07T12:54:04.466Z,11.94
2022-11-07T12:55:47.819Z,11.74
2022-11-07T12:56:53.393Z,11.65
2022-11-07T12:57:56.470Z,12.02
2022-11-07T12:59:00.703Z,12.59
2022-11-07T13:00:05.903Z,13.20
2022-11-07T13:01:08.933Z,13.73
2022-11-07T13:02:35.221Z,14.20
2022-11-07T13:03:56.367Z,14.70
2022-11-07T13:05:03.376Z,14.67
2022-11-07T13:06:31.551Z,14.32
2022-11-07T13:07:50.108Z,13.77
2022-11-07T13:09:29.521Z,13.32
2022-11-07T13:10:48.659Z,12.83
2022-11-07T13:12:06.290Z,12.51
2022-11-07T13:13:25.479Z,12.26
2022-11-07T13:14:39.189Z,12.05
2022-11-07T13:16:08.983Z,11.89
2022-11-07T13:17:15.621Z,11.72
2022-11-07T13:18:26.634Z,11.83
2022-11-07T13:19:37.373Z,12.37
2022-11-07T13:20:39.102Z,13.04
2022-11-07T13:21:43.083Z,13.61
2022-11-07T13:22:44.795Z,14.09
2022-11-07T13:23:48.122Z,14.47
2022-11-07T13:25:09.345Z,14.77
2022-11-07T13:26:32.945Z,14.61
2022-11-07T13:27:39.513Z,14.09
2022-11-07T13:28:58.351Z,13.64
2022-11-07T13:30:20.437Z,13.23
2022-11-07T13:31:38.612Z,12.85
2022-11-07T13:32:41.071Z,12.53
2022-11-07T13:33:42.766Z,12.31
2022-11-07T13:35:00.522Z,12.11
2022-11-07T13:36:26.295Z,11.94
2022-11-07T13:37:33.054Z,12.30
2022-11-07T13:38:50.193Z,12.89
2022-11-07T13:39:59.606Z,13.57
2022-11-07T13:41:06.171Z,14.09
2022-11-07T13:42:16.830Z,14.50
2022-11-07T13:43:24.293Z,14.83
2022-11-07T13:44:36.167Z,14.76
2022-11-07T13:45:46.099Z,14.40
2022-11-07T13:46:53.503Z,13.93
2022-11-07T13:48:01.038Z,13.51
2022-11-07T13:49:17.220Z,13.14
2022-11-07T13:50:25.495Z,12.78
2022-11-07T13:51:41.077Z,12.52
2022-11-07T13:53:05.623Z,12.27
2022-11-07T13:54:27.698Z,12.02
2022-11-07T13:55:44.146Z,11.89
2022-11-07T13:57:04.833Z,12.28
2022-11-07T13:58:13.012Z,13.02
2022-11-07T13:59:44.433Z,13.62
2022-11-07T14:00:46.601Z,14.35
2022-11-07T14:01:56.228Z,14.75
2022-11-07T14:02:59.345Z,15.08
2022-11-07T14:04:21.262Z,14.96
2022-11-07T14:05:35.091Z,14.42
2022-11-07T14:06:37.048Z,13.90
2022-11-07T14:07:45.623Z,13.50
2022-11-07T14:08:48.625Z,13.15
2022-11-07T14:09:57.764Z,12.87
2022-11-07T14:11:00.143Z,12.60
2022-11-07T14:12:01.998Z,12.39
2022-11-07T14:13:22.396Z,12.20
2022-11-07T14:14:26.607Z,12.11
2022-11-07T14:15:30.627Z,12.43
2022-11-07T14:16:32.623Z,12.97
2022-11-07T14:17:36.811Z,13.49
2022-11-07T14:18:48.172Z,14.00
2022-11-07T14:19:49.963Z,14.48
2022-11-07T14:20:57.729Z,14.80